sensor_id;sensor_type;location;lat;lon;timestamp;temperature;humidity
4451;DHT22;2238;50.180;9.230;2023-02-28T00:02:00;-0.60;99.90
4451;DHT22;2238;50.180;9.230;2023-02-28T00:05:00;-0.30;99.90
4451;DHT22;2238;50.180;9.230;2023-02-28T00:08:03;-0.20;99.90
4451;DHT22;2238;50.180;9.230;2023-02-28T00:11:07;-0.10;99.90
4451;DHT22;2238;50.180;9.230;2023-02-28T00:14:08;0.00;99.90
4451;DHT22;2238;50.180;9.230;2023-02-28T00:17:08;-0.20;99.90
4451;DHT22;2238;50.180;9.230;2023-02-28T00:20:10;-0.10;99.90
4451;DHT22;2238;50.180;9.230;2023-02-28T00:23:12;0.00;99.90
4451;DHT22;2238;50.180;9.230;2023-02-28T00:26:12;-0.10;99.90
4451;DHT22;2238;50.180;9.230;2023-02-28T00:29:13;-0.30;99.90
4451;DHT22;2238;50.180;9.230;2023-02-28T00:32:13;-0.30;99.90
4451;DHT22;2238;50.180;9.230;2023-02-28T00:35:14;-0.40;99.90
4451;DHT22;2238;50.180;9.230;2023-02-28T00:38:15;-0.30;99.90
4451;DHT22;2238;50.180;9.230;2023-02-28T00:41:16;-0.20;99.90
4451;DHT22;2238;50.180;9.230;2023-02-28T00:44:16;-0.60;99.90
4451;DHT22;2238;50.180;9.230;2023-02-28T00:47:17;-0.50;99.90
4451;DHT22;2238;50.180;9.230;2023-02-28T00:50:19;-0.50;99.90
4451;DHT22;2238;50.180;9.230;2023-02-28T00:53:20;0.30;99.90
4451;DHT22;2238;50.180;9.230;2023-02-28T00:56:21;-0.70;99.90
4451;DHT22;2238;50.180;9.230;2023-02-28T00:59:21;-0.50;99.90
4451;DHT22;2238;50.180;9.230;2023-02-28T01:02:22;-0.70;99.90
4451;DHT22;2238;50.180;9.230;2023-02-28T01:05:23;-1.00;99.90
4451;DHT22;2238;50.180;9.230;2023-02-28T01:08:24;-0.90;99.90
4451;DHT22;2238;50.180;9.230;2023-02-28T01:11:26;-0.80;99.90
4451;DHT22;2238;50.180;9.230;2023-02-28T01:14:26;-1.10;99.90
4451;DHT22;2238;50.180;9.230;2023-02-28T01:17:27;-1.30;99.90
4451;DHT22;2238;50.180;9.230;2023-02-28T01:20:28;-1.30;99.90
4451;DHT22;2238;50.180;9.230;2023-02-28T01:23:28;-0.90;99.90
4451;DHT22;2238;50.180;9.230;2023-02-28T01:26:29;-1.30;99.90
4451;DHT22;2238;50.180;9.230;2023-02-28T01:29:30;-1.20;99.90
4451;DHT22;2238;50.180;9.230;2023-02-28T01:32:30;-1.10;99.90
4451;DHT22;2238;50.180;9.230;2023-02-28T01:35:35;-1.00;99.90
4451;DHT22;2238;50.180;9.230;2023-02-28T01:38:36;-1.30;99.90
4451;DHT22;2238;50.180;9.230;2023-02-28T01:41:37;-1.60;99.90
4451;DHT22;2238;50.180;9.230;2023-02-28T01:45:01;-1.80;99.90
4451;DHT22;2238;50.180;9.230;2023-02-28T01:48:04;-1.70;99.90
4451;DHT22;2238;50.180;9.230;2023-02-28T01:51:13;-2.10;99.90
4451;DHT22;2238;50.180;9.230;2023-02-28T01:54:18;-1.40;99.90
4451;DHT22;2238;50.180;9.230;2023-02-28T01:57:24;-1.20;99.90
4451;DHT22;2238;50.180;9.230;2023-02-28T02:00:26;-1.20;99.90
4451;DHT22;2238;50.180;9.230;2023-02-28T02:03:27;-1.50;99.90
4451;DHT22;2238;50.180;9.230;2023-02-28T02:06:34;-1.40;99.90
4451;DHT22;2238;50.180;9.230;2023-02-28T02:09:36;-1.40;99.90
4451;DHT22;2238;50.180;9.230;2023-02-28T02:13:21;-1.40;99.90
4451;DHT22;2238;50.180;9.230;2023-02-28T02:27:03;-1.50;99.90
4451;DHT22;2238;50.180;9.230;2023-02-28T02:33:31;-1.60;99.90
4451;DHT22;2238;50.180;9.230;2023-02-28T02:43:46;-2.10;99.90
4451;DHT22;2238;50.180;9.230;2023-02-28T02:46:51;-1.90;99.90
4451;DHT22;2238;50.180;9.230;2023-02-28T02:49:57;-1.70;99.90
4451;DHT22;2238;50.180;9.230;2023-02-28T02:53:00;-2.10;99.90
4451;DHT22;2238;50.180;9.230;2023-02-28T02:56:03;-2.00;99.90
4451;DHT22;2238;50.180;9.230;2023-02-28T02:59:08;-1.60;99.90
4451;DHT22;2238;50.180;9.230;2023-02-28T03:02:13;-1.60;99.90
4451;DHT22;2238;50.180;9.230;2023-02-28T03:05:25;-1.70;99.90
4451;DHT22;2238;50.180;9.230;2023-02-28T03:08:27;-1.50;99.90
4451;DHT22;2238;50.180;9.230;2023-02-28T03:11:28;-1.50;99.90
4451;DHT22;2238;50.180;9.230;2023-02-28T03:18:29;-1.40;99.90
4451;DHT22;2238;50.180;9.230;2023-02-28T03:31:36;-2.00;99.90
4451;DHT22;2238;50.180;9.230;2023-02-28T03:34:41;-1.70;99.90
4451;DHT22;2238;50.180;9.230;2023-02-28T03:37:45;-1.50;99.90
4451;DHT22;2238;50.180;9.230;2023-02-28T03:40:54;-1.40;99.90
4451;DHT22;2238;50.180;9.230;2023-02-28T03:43:59;-1.30;99.90
4451;DHT22;2238;50.180;9.230;2023-02-28T03:47:12;-1.30;99.90
4451;DHT22;2238;50.180;9.230;2023-02-28T03:50:21;-1.40;99.90
4451;DHT22;2238;50.180;9.230;2023-02-28T03:53:34;-1.20;99.90
4451;DHT22;2238;50.180;9.230;2023-02-28T03:56:56;-1.90;99.90
4451;DHT22;2238;50.180;9.230;2023-02-28T04:00:24;-1.80;99.90
4451;DHT22;2238;50.180;9.230;2023-02-28T04:03:28;-1.90;99.90
4451;DHT22;2238;50.180;9.230;2023-02-28T04:06:31;-1.70;99.90
4451;DHT22;2238;50.180;9.230;2023-02-28T04:09:33;-1.60;99.90
4451;DHT22;2238;50.180;9.230;2023-02-28T04:12:33;-1.50;99.90
4451;DHT22;2238;50.180;9.230;2023-02-28T04:15:34;-2.10;99.90
4451;DHT22;2238;50.180;9.230;2023-02-28T04:18:34;-1.80;99.90
4451;DHT22;2238;50.180;9.230;2023-02-28T04:21:37;-1.70;99.90
4451;DHT22;2238;50.180;9.230;2023-02-28T04:24:39;-1.80;99.90
4451;DHT22;2238;50.180;9.230;2023-02-28T04:27:41;-1.50;99.90
4451;DHT22;2238;50.180;9.230;2023-02-28T04:30:44;-1.50;99.90
4451;DHT22;2238;50.180;9.230;2023-02-28T04:33:45;-1.50;99.90
4451;DHT22;2238;50.180;9.230;2023-02-28T04:36:45;-1.40;99.90
4451;DHT22;2238;50.180;9.230;2023-02-28T04:39:46;-1.40;99.90
4451;DHT22;2238;50.180;9.230;2023-02-28T04:42:46;-1.20;99.90
4451;DHT22;2238;50.180;9.230;2023-02-28T04:45:47;-1.20;99.90
4451;DHT22;2238;50.180;9.230;2023-02-28T04:48:48;-1.30;99.90
4451;DHT22;2238;50.180;9.230;2023-02-28T04:51:49;-1.30;99.90
4451;DHT22;2238;50.180;9.230;2023-02-28T04:54:50;-1.30;99.90
4451;DHT22;2238;50.180;9.230;2023-02-28T04:57:50;-1.30;99.90
4451;DHT22;2238;50.180;9.230;2023-02-28T05:00:52;-1.30;99.90
4451;DHT22;2238;50.180;9.230;2023-02-28T05:03:55;-1.30;99.90
4451;DHT22;2238;50.180;9.230;2023-02-28T05:06:56;-1.30;99.90
4451;DHT22;2238;50.180;9.230;2023-02-28T05:09:56;-1.30;99.90
4451;DHT22;2238;50.180;9.230;2023-02-28T05:12:57;-1.20;99.90
4451;DHT22;2238;50.180;9.230;2023-02-28T05:15:58;-1.30;99.90
4451;DHT22;2238;50.180;9.230;2023-02-28T05:18:58;-1.30;99.90
4451;DHT22;2238;50.180;9.230;2023-02-28T05:21:59;-1.30;99.90
4451;DHT22;2238;50.180;9.230;2023-02-28T05:24:59;-1.50;99.90
4451;DHT22;2238;50.180;9.230;2023-02-28T05:28:00;-1.40;99.90
4451;DHT22;2238;50.180;9.230;2023-02-28T05:31:00;0.40;99.90
4451;DHT22;2238;50.180;9.230;2023-02-28T05:34:01;-1.50;99.90
4451;DHT22;2238;50.180;9.230;2023-02-28T05:37:05;-1.40;99.90
4451;DHT22;2238;50.180;9.230;2023-02-28T05:40:06;-1.80;99.90
4451;DHT22;2238;50.180;9.230;2023-02-28T05:43:10;-2.10;99.90
4451;DHT22;2238;50.180;9.230;2023-02-28T05:46:12;-2.20;99.90
4451;DHT22;2238;50.180;9.230;2023-02-28T05:49:13;-2.00;99.90
4451;DHT22;2238;50.180;9.230;2023-02-28T05:52:14;-1.70;99.90
4451;DHT22;2238;50.180;9.230;2023-02-28T05:55:14;-1.80;99.90
4451;DHT22;2238;50.180;9.230;2023-02-28T05:58:15;-1.70;99.90
4451;DHT22;2238;50.180;9.230;2023-02-28T06:01:34;-1.70;99.90
4451;DHT22;2238;50.180;9.230;2023-02-28T06:04:36;-1.60;99.90
4451;DHT22;2238;50.180;9.230;2023-02-28T06:07:36;-1.80;99.90
4451;DHT22;2238;50.180;9.230;2023-02-28T06:10:37;-1.90;99.90
4451;DHT22;2238;50.180;9.230;2023-02-28T06:13:38;-1.70;99.90
4451;DHT22;2238;50.180;9.230;2023-02-28T06:16:39;-1.60;99.90
4451;DHT22;2238;50.180;9.230;2023-02-28T06:19:39;-1.70;99.90
4451;DHT22;2238;50.180;9.230;2023-02-28T06:22:41;-1.50;99.90
4451;DHT22;2238;50.180;9.230;2023-02-28T06:25:45;-1.50;99.90
4451;DHT22;2238;50.180;9.230;2023-02-28T06:28:46;-1.50;99.90
4451;DHT22;2238;50.180;9.230;2023-02-28T06:31:47;-1.70;99.90
4451;DHT22;2238;50.180;9.230;2023-02-28T06:34:48;-1.50;99.90
4451;DHT22;2238;50.180;9.230;2023-02-28T06:37:49;-1.60;99.90
4451;DHT22;2238;50.180;9.230;2023-02-28T06:40:56;-1.40;99.90
4451;DHT22;2238;50.180;9.230;2023-02-28T06:43:57;-1.50;99.90
4451;DHT22;2238;50.180;9.230;2023-02-28T06:46:58;-1.60;99.90
4451;DHT22;2238;50.180;9.230;2023-02-28T06:49:58;-1.60;99.90
4451;DHT22;2238;50.180;9.230;2023-02-28T06:53:01;-1.60;99.90
4451;DHT22;2238;50.180;9.230;2023-02-28T06:56:07;-1.50;99.90
4451;DHT22;2238;50.180;9.230;2023-02-28T06:59:07;-1.60;99.90
4451;DHT22;2238;50.180;9.230;2023-02-28T07:02:08;-1.70;99.90
4451;DHT22;2238;50.180;9.230;2023-02-28T07:05:09;-1.40;99.90
4451;DHT22;2238;50.180;9.230;2023-02-28T07:08:09;-1.50;99.90
4451;DHT22;2238;50.180;9.230;2023-02-28T07:11:10;-1.50;99.90
4451;DHT22;2238;50.180;9.230;2023-02-28T07:14:10;-1.50;99.90
4451;DHT22;2238;50.180;9.230;2023-02-28T07:17:11;-1.30;99.90
4451;DHT22;2238;50.180;9.230;2023-02-28T07:20:12;-1.30;99.90
4451;DHT22;2238;50.180;9.230;2023-02-28T07:23:13;-1.30;99.90
4451;DHT22;2238;50.180;9.230;2023-02-28T07:26:15;-1.30;99.90
4451;DHT22;2238;50.180;9.230;2023-02-28T07:29:17;-1.20;99.90
4451;DHT22;2238;50.180;9.230;2023-02-28T07:32:18;-0.90;99.90
4451;DHT22;2238;50.180;9.230;2023-02-28T07:35:19;-0.70;99.90
4451;DHT22;2238;50.180;9.230;2023-02-28T07:38:19;-0.20;99.90
4451;DHT22;2238;50.180;9.230;2023-02-28T07:41:21;0.20;99.90
4451;DHT22;2238;50.180;9.230;2023-02-28T07:44:22;0.40;99.90
4451;DHT22;2238;50.180;9.230;2023-02-28T07:47:22;0.80;99.90
4451;DHT22;2238;50.180;9.230;2023-02-28T07:50:23;0.90;99.90
4451;DHT22;2238;50.180;9.230;2023-02-28T07:53:24;1.10;99.90
4451;DHT22;2238;50.180;9.230;2023-02-28T07:56:25;0.90;99.90
4451;DHT22;2238;50.180;9.230;2023-02-28T07:59:25;2.40;99.90
4451;DHT22;2238;50.180;9.230;2023-02-28T08:02:26;1.40;99.90
4451;DHT22;2238;50.180;9.230;2023-02-28T08:05:26;1.90;99.90
4451;DHT22;2238;50.180;9.230;2023-02-28T08:08:27;2.00;99.90
4451;DHT22;2238;50.180;9.230;2023-02-28T08:11:31;2.10;99.90
4451;DHT22;2238;50.180;9.230;2023-02-28T08:14:32;2.80;99.90
4451;DHT22;2238;50.180;9.230;2023-02-28T08:17:33;2.60;99.90
4451;DHT22;2238;50.180;9.230;2023-02-28T08:20:33;2.00;99.90
4451;DHT22;2238;50.180;9.230;2023-02-28T08:23:34;2.80;99.90
4451;DHT22;2238;50.180;9.230;2023-02-28T08:26:35;2.80;99.90
4451;DHT22;2238;50.180;9.230;2023-02-28T08:29:39;2.80;99.90
4451;DHT22;2238;50.180;9.230;2023-02-28T08:32:40;2.40;99.90
4451;DHT22;2238;50.180;9.230;2023-02-28T08:35:40;2.50;99.90
4451;DHT22;2238;50.180;9.230;2023-02-28T08:38:41;3.10;99.90
4451;DHT22;2238;50.180;9.230;2023-02-28T08:41:42;3.60;99.90
4451;DHT22;2238;50.180;9.230;2023-02-28T08:44:44;3.30;99.90
4451;DHT22;2238;50.180;9.230;2023-02-28T08:47:44;2.40;99.90
4451;DHT22;2238;50.180;9.230;2023-02-28T08:51:02;3.30;99.90
4451;DHT22;2238;50.180;9.230;2023-02-28T08:54:03;2.70;99.90
4451;DHT22;2238;50.180;9.230;2023-02-28T08:57:03;3.00;99.90
4451;DHT22;2238;50.180;9.230;2023-02-28T09:00:04;3.70;99.90
4451;DHT22;2238;50.180;9.230;2023-02-28T09:03:05;3.30;99.90
4451;DHT22;2238;50.180;9.230;2023-02-28T09:06:06;3.50;99.90
4451;DHT22;2238;50.180;9.230;2023-02-28T09:09:07;3.40;99.90
4451;DHT22;2238;50.180;9.230;2023-02-28T09:12:07;3.90;99.90
4451;DHT22;2238;50.180;9.230;2023-02-28T09:15:08;4.10;99.90
4451;DHT22;2238;50.180;9.230;2023-02-28T09:18:09;4.00;99.90
4451;DHT22;2238;50.180;9.230;2023-02-28T09:21:12;3.70;99.90
4451;DHT22;2238;50.180;9.230;2023-02-28T09:24:14;3.70;99.90
4451;DHT22;2238;50.180;9.230;2023-02-28T09:27:15;3.60;99.90
4451;DHT22;2238;50.180;9.230;2023-02-28T09:30:16;2.90;99.90
4451;DHT22;2238;50.180;9.230;2023-02-28T09:33:17;2.60;99.90
4451;DHT22;2238;50.180;9.230;2023-02-28T09:36:22;1.40;99.90
4451;DHT22;2238;50.180;9.230;2023-02-28T09:39:23;3.40;99.90
4451;DHT22;2238;50.180;9.230;2023-02-28T09:42:31;3.50;99.90
4451;DHT22;2238;50.180;9.230;2023-02-28T09:45:37;2.90;99.90
4451;DHT22;2238;50.180;9.230;2023-02-28T09:48:44;3.50;99.90
4451;DHT22;2238;50.180;9.230;2023-02-28T09:52:03;3.80;99.90
4451;DHT22;2238;50.180;9.230;2023-02-28T09:55:39;4.60;99.90
4451;DHT22;2238;50.180;9.230;2023-02-28T09:58:51;4.30;99.90
4451;DHT22;2238;50.180;9.230;2023-02-28T10:01:59;4.10;99.90
4451;DHT22;2238;50.180;9.230;2023-02-28T10:05:07;4.70;99.90
4451;DHT22;2238;50.180;9.230;2023-02-28T10:08:16;5.30;99.90
4451;DHT22;2238;50.180;9.230;2023-02-28T10:11:18;4.80;99.90
4451;DHT22;2238;50.180;9.230;2023-02-28T10:14:29;4.30;99.90
4451;DHT22;2238;50.180;9.230;2023-02-28T10:17:38;3.80;99.90
4451;DHT22;2238;50.180;9.230;2023-02-28T10:20:41;3.80;99.90
4451;DHT22;2238;50.180;9.230;2023-02-28T10:23:42;3.70;99.90
4451;DHT22;2238;50.180;9.230;2023-02-28T10:26:45;4.00;99.90
4451;DHT22;2238;50.180;9.230;2023-02-28T10:30:09;4.00;99.90
4451;DHT22;2238;50.180;9.230;2023-02-28T10:36:20;4.00;99.90
4451;DHT22;2238;50.180;9.230;2023-02-28T10:39:41;4.50;99.90
4451;DHT22;2238;50.180;9.230;2023-02-28T10:42:41;3.30;99.90
4451;DHT22;2238;50.180;9.230;2023-02-28T10:49:02;3.10;99.90
4451;DHT22;2238;50.180;9.230;2023-02-28T10:52:03;2.90;99.90
4451;DHT22;2238;50.180;9.230;2023-02-28T10:55:22;3.00;99.90
4451;DHT22;2238;50.180;9.230;2023-02-28T10:58:25;3.80;99.90
4451;DHT22;2238;50.180;9.230;2023-02-28T11:01:41;3.40;99.90
4451;DHT22;2238;50.180;9.230;2023-02-28T11:04:42;3.90;99.90
4451;DHT22;2238;50.180;9.230;2023-02-28T11:07:59;4.50;99.90
4451;DHT22;2238;50.180;9.230;2023-02-28T11:11:05;4.20;99.90
4451;DHT22;2238;50.180;9.230;2023-02-28T11:15:03;4.30;99.90
4451;DHT22;2238;50.180;9.230;2023-02-28T11:17:38;4.60;99.90
4451;DHT22;2238;50.180;9.230;2023-02-28T11:20:39;5.10;99.90
4451;DHT22;2238;50.180;9.230;2023-02-28T11:23:41;4.90;99.90
4451;DHT22;2238;50.180;9.230;2023-02-28T11:26:44;5.20;99.90
4451;DHT22;2238;50.180;9.230;2023-02-28T11:29:47;4.50;99.90
4451;DHT22;2238;50.180;9.230;2023-02-28T11:32:49;4.90;99.90
4451;DHT22;2238;50.180;9.230;2023-02-28T11:35:50;4.70;99.90
4451;DHT22;2238;50.180;9.230;2023-02-28T11:38:53;4.30;99.90
4451;DHT22;2238;50.180;9.230;2023-02-28T11:48:44;4.00;99.90
4451;DHT22;2238;50.180;9.230;2023-02-28T11:51:47;3.90;99.90
4451;DHT22;2238;50.180;9.230;2023-02-28T11:55:15;4.00;99.90
4451;DHT22;2238;50.180;9.230;2023-02-28T12:02:34;3.70;99.90
4451;DHT22;2238;50.180;9.230;2023-02-28T12:05:45;4.20;99.90
4451;DHT22;2238;50.180;9.230;2023-02-28T12:09:20;3.80;99.90
4451;DHT22;2238;50.180;9.230;2023-02-28T12:25:18;4.40;99.90
4451;DHT22;2238;50.180;9.230;2023-02-28T12:28:26;4.30;99.90
4451;DHT22;2238;50.180;9.230;2023-02-28T12:31:33;4.10;99.90
4451;DHT22;2238;50.180;9.230;2023-02-28T12:34:50;4.40;99.90
4451;DHT22;2238;50.180;9.230;2023-02-28T12:38:16;4.90;99.90
4451;DHT22;2238;50.180;9.230;2023-02-28T12:41:26;5.10;99.90
4451;DHT22;2238;50.180;9.230;2023-02-28T12:44:48;5.10;99.90
4451;DHT22;2238;50.180;9.230;2023-02-28T12:48:00;4.70;99.90
4451;DHT22;2238;50.180;9.230;2023-02-28T12:51:05;4.70;99.90
4451;DHT22;2238;50.180;9.230;2023-02-28T13:01:10;4.30;99.90
4451;DHT22;2238;50.180;9.230;2023-02-28T13:04:34;4.30;99.90
4451;DHT22;2238;50.180;9.230;2023-02-28T13:10:48;4.10;99.90
4451;DHT22;2238;50.180;9.230;2023-02-28T13:13:58;4.40;99.90
4451;DHT22;2238;50.180;9.230;2023-02-28T13:20:00;4.30;99.90
4451;DHT22;2238;50.180;9.230;2023-02-28T13:23:00;3.90;99.90
4451;DHT22;2238;50.180;9.230;2023-02-28T13:26:05;4.30;99.90
4451;DHT22;2238;50.180;9.230;2023-02-28T13:32:30;4.00;99.90
4451;DHT22;2238;50.180;9.230;2023-02-28T13:35:38;4.10;99.90
4451;DHT22;2238;50.180;9.230;2023-02-28T13:39:00;3.90;99.90
4451;DHT22;2238;50.180;9.230;2023-02-28T13:45:28;4.20;99.90
4451;DHT22;2238;50.180;9.230;2023-02-28T13:48:30;4.20;99.90
4451;DHT22;2238;50.180;9.230;2023-02-28T13:51:40;4.10;99.90
4451;DHT22;2238;50.180;9.230;2023-02-28T13:58:32;4.00;99.90
4451;DHT22;2238;50.180;9.230;2023-02-28T14:01:57;4.10;99.90
4451;DHT22;2238;50.180;9.230;2023-02-28T14:08:16;4.00;99.90
4451;DHT22;2238;50.180;9.230;2023-02-28T14:11:26;4.00;99.90
4451;DHT22;2238;50.180;9.230;2023-02-28T14:17:37;4.10;99.90
4451;DHT22;2238;50.180;9.230;2023-02-28T14:20:40;4.10;99.90
4451;DHT22;2238;50.180;9.230;2023-02-28T14:27:08;3.90;99.90
4451;DHT22;2238;50.180;9.230;2023-02-28T14:37:13;4.10;99.90
4451;DHT22;2238;50.180;9.230;2023-02-28T14:40:19;4.10;99.90
4451;DHT22;2238;50.180;9.230;2023-02-28T14:43:24;4.00;99.90
4451;DHT22;2238;50.180;9.230;2023-02-28T14:46:40;4.10;99.90
4451;DHT22;2238;50.180;9.230;2023-02-28T14:49:45;4.80;99.90
4451;DHT22;2238;50.180;9.230;2023-02-28T14:52:50;3.90;99.90
4451;DHT22;2238;50.180;9.230;2023-02-28T14:55:52;3.90;99.90
4451;DHT22;2238;50.180;9.230;2023-02-28T14:58:55;4.00;99.90
4451;DHT22;2238;50.180;9.230;2023-02-28T15:02:19;3.90;99.90
4451;DHT22;2238;50.180;9.230;2023-02-28T15:08:25;3.90;99.90
4451;DHT22;2238;50.180;9.230;2023-02-28T15:11:29;3.90;99.90
4451;DHT22;2238;50.180;9.230;2023-02-28T15:14:29;3.90;99.90
4451;DHT22;2238;50.180;9.230;2023-02-28T15:17:31;3.90;99.90
4451;DHT22;2238;50.180;9.230;2023-02-28T15:20:32;3.90;99.90
4451;DHT22;2238;50.180;9.230;2023-02-28T15:23:35;5.10;99.90
4451;DHT22;2238;50.180;9.230;2023-02-28T15:26:45;3.90;99.90
4451;DHT22;2238;50.180;9.230;2023-02-28T15:29:54;3.70;99.90
4451;DHT22;2238;50.180;9.230;2023-02-28T15:33:06;3.60;99.90
4451;DHT22;2238;50.180;9.230;2023-02-28T15:36:17;3.80;99.90
4451;DHT22;2238;50.180;9.230;2023-02-28T15:39:26;3.80;99.90
4451;DHT22;2238;50.180;9.230;2023-02-28T15:42:29;3.80;99.90
4451;DHT22;2238;50.180;9.230;2023-02-28T15:45:35;3.80;99.90
4451;DHT22;2238;50.180;9.230;2023-02-28T15:48:53;3.60;99.90
4451;DHT22;2238;50.180;9.230;2023-02-28T15:51:57;3.50;99.90
4451;DHT22;2238;50.180;9.230;2023-02-28T15:54:59;3.60;99.90
4451;DHT22;2238;50.180;9.230;2023-02-28T15:58:11;3.60;99.90
4451;DHT22;2238;50.180;9.230;2023-02-28T16:01:24;3.60;99.90
4451;DHT22;2238;50.180;9.230;2023-02-28T16:04:25;3.40;99.90
4451;DHT22;2238;50.180;9.230;2023-02-28T16:07:29;3.50;99.90
4451;DHT22;2238;50.180;9.230;2023-02-28T16:10:30;3.40;99.90
4451;DHT22;2238;50.180;9.230;2023-02-28T16:13:31;3.40;99.90
4451;DHT22;2238;50.180;9.230;2023-02-28T16:16:32;3.50;99.90
4451;DHT22;2238;50.180;9.230;2023-02-28T16:19:33;3.40;99.90
4451;DHT22;2238;50.180;9.230;2023-02-28T16:22:34;3.70;99.90
4451;DHT22;2238;50.180;9.230;2023-02-28T16:25:44;3.70;99.90
4451;DHT22;2238;50.180;9.230;2023-02-28T16:28:46;3.30;99.90
4451;DHT22;2238;50.180;9.230;2023-02-28T16:31:47;3.50;99.90
4451;DHT22;2238;50.180;9.230;2023-02-28T16:34:48;3.70;99.90
4451;DHT22;2238;50.180;9.230;2023-02-28T16:37:50;3.10;99.90
4451;DHT22;2238;50.180;9.230;2023-02-28T16:40:53;3.00;99.90
4451;DHT22;2238;50.180;9.230;2023-02-28T16:43:58;4.20;99.90
4451;DHT22;2238;50.180;9.230;2023-02-28T16:47:01;2.70;99.90
4451;DHT22;2238;50.180;9.230;2023-02-28T16:50:15;2.80;99.90
4451;DHT22;2238;50.180;9.230;2023-02-28T16:53:15;2.90;99.90
4451;DHT22;2238;50.180;9.230;2023-02-28T16:56:21;2.70;99.90
4451;DHT22;2238;50.180;9.230;2023-02-28T16:59:24;2.30;99.90
4451;DHT22;2238;50.180;9.230;2023-02-28T17:02:25;2.20;99.90
4451;DHT22;2238;50.180;9.230;2023-02-28T17:05:26;2.10;99.90
4451;DHT22;2238;50.180;9.230;2023-02-28T17:08:29;2.10;99.90
4451;DHT22;2238;50.180;9.230;2023-02-28T17:11:32;1.80;99.90
4451;DHT22;2238;50.180;9.230;2023-02-28T17:14:33;1.80;99.90
4451;DHT22;2238;50.180;9.230;2023-02-28T17:17:33;1.90;99.90
4451;DHT22;2238;50.180;9.230;2023-02-28T17:20:34;2.00;99.90
4451;DHT22;2238;50.180;9.230;2023-02-28T17:23:34;1.30;99.90
4451;DHT22;2238;50.180;9.230;2023-02-28T17:26:35;1.30;99.90
4451;DHT22;2238;50.180;9.230;2023-02-28T17:29:35;1.90;99.90
4451;DHT22;2238;50.180;9.230;2023-02-28T17:34:05;2.80;99.90
4451;DHT22;2238;50.180;9.230;2023-02-28T17:37:08;1.60;99.90
4451;DHT22;2238;50.180;9.230;2023-02-28T17:40:18;1.30;99.90
4451;DHT22;2238;50.180;9.230;2023-02-28T17:43:19;1.10;99.90
4451;DHT22;2238;50.180;9.230;2023-02-28T17:46:22;1.10;99.90
4451;DHT22;2238;50.180;9.230;2023-02-28T17:49:23;1.30;99.90
4451;DHT22;2238;50.180;9.230;2023-02-28T17:52:23;1.50;99.90
4451;DHT22;2238;50.180;9.230;2023-02-28T17:55:24;1.40;99.90
4451;DHT22;2238;50.180;9.230;2023-02-28T17:58:25;1.40;99.90
4451;DHT22;2238;50.180;9.230;2023-02-28T18:01:25;1.50;99.90
4451;DHT22;2238;50.180;9.230;2023-02-28T18:04:26;1.30;99.90
4451;DHT22;2238;50.180;9.230;2023-02-28T18:07:27;0.90;99.90
4451;DHT22;2238;50.180;9.230;2023-02-28T18:10:28;1.10;99.90
4451;DHT22;2238;50.180;9.230;2023-02-28T18:13:28;1.10;99.90
4451;DHT22;2238;50.180;9.230;2023-02-28T18:16:29;1.00;99.90
4451;DHT22;2238;50.180;9.230;2023-02-28T18:19:29;1.30;99.90
4451;DHT22;2238;50.180;9.230;2023-02-28T18:22:30;1.40;99.90
4451;DHT22;2238;50.180;9.230;2023-02-28T18:25:30;1.40;99.90
4451;DHT22;2238;50.180;9.230;2023-02-28T18:28:31;1.60;99.90
4451;DHT22;2238;50.180;9.230;2023-02-28T18:31:34;1.50;99.90
4451;DHT22;2238;50.180;9.230;2023-02-28T18:34:34;1.50;99.90
4451;DHT22;2238;50.180;9.230;2023-02-28T18:37:35;1.40;99.90
4451;DHT22;2238;50.180;9.230;2023-02-28T18:40:36;1.40;99.90
4451;DHT22;2238;50.180;9.230;2023-02-28T18:43:37;1.40;99.90
4451;DHT22;2238;50.180;9.230;2023-02-28T18:46:38;1.50;99.90
4451;DHT22;2238;50.180;9.230;2023-02-28T18:49:39;1.80;99.90
4451;DHT22;2238;50.180;9.230;2023-02-28T18:52:40;1.60;99.90
4451;DHT22;2238;50.180;9.230;2023-02-28T18:55:40;1.50;99.90
4451;DHT22;2238;50.180;9.230;2023-02-28T18:58:41;1.30;99.90
4451;DHT22;2238;50.180;9.230;2023-02-28T19:01:42;1.60;99.90
4451;DHT22;2238;50.180;9.230;2023-02-28T19:04:43;1.20;99.90
4451;DHT22;2238;50.180;9.230;2023-02-28T19:07:45;1.10;99.90
4451;DHT22;2238;50.180;9.230;2023-02-28T19:10:45;1.30;99.90
4451;DHT22;2238;50.180;9.230;2023-02-28T19:13:46;0.90;99.90
4451;DHT22;2238;50.180;9.230;2023-02-28T19:16:47;0.90;99.90
4451;DHT22;2238;50.180;9.230;2023-02-28T19:19:49;0.80;99.90
4451;DHT22;2238;50.180;9.230;2023-02-28T19:22:49;0.70;99.90
4451;DHT22;2238;50.180;9.230;2023-02-28T19:25:50;0.50;99.90
4451;DHT22;2238;50.180;9.230;2023-02-28T19:28:51;0.30;99.90
4451;DHT22;2238;50.180;9.230;2023-02-28T19:31:52;0.50;99.90
4451;DHT22;2238;50.180;9.230;2023-02-28T19:34:52;0.40;99.90
4451;DHT22;2238;50.180;9.230;2023-02-28T19:37:53;0.40;99.90
4451;DHT22;2238;50.180;9.230;2023-02-28T19:41:04;0.10;99.90
4451;DHT22;2238;50.180;9.230;2023-02-28T19:44:05;-0.20;99.90
4451;DHT22;2238;50.180;9.230;2023-02-28T19:47:07;0.10;99.90
4451;DHT22;2238;50.180;9.230;2023-02-28T19:50:08;0.30;99.90
4451;DHT22;2238;50.180;9.230;2023-02-28T19:53:09;0.10;99.90
4451;DHT22;2238;50.180;9.230;2023-02-28T19:56:10;-0.20;99.90
4451;DHT22;2238;50.180;9.230;2023-02-28T19:59:10;-0.30;99.90
4451;DHT22;2238;50.180;9.230;2023-02-28T20:02:16;-0.20;99.90
4451;DHT22;2238;50.180;9.230;2023-02-28T20:05:17;0.00;99.90
4451;DHT22;2238;50.180;9.230;2023-02-28T20:08:17;-0.20;99.90
4451;DHT22;2238;50.180;9.230;2023-02-28T20:11:18;0.10;99.90
4451;DHT22;2238;50.180;9.230;2023-02-28T20:14:19;0.00;99.90
4451;DHT22;2238;50.180;9.230;2023-02-28T20:17:19;0.10;99.90
4451;DHT22;2238;50.180;9.230;2023-02-28T20:20:20;0.40;99.90
4451;DHT22;2238;50.180;9.230;2023-02-28T20:23:20;0.10;99.90
4451;DHT22;2238;50.180;9.230;2023-02-28T20:26:21;-0.10;99.90
4451;DHT22;2238;50.180;9.230;2023-02-28T20:29:22;-0.20;99.90
4451;DHT22;2238;50.180;9.230;2023-02-28T20:32:22;-0.40;99.90
4451;DHT22;2238;50.180;9.230;2023-02-28T20:35:23;0.10;99.90
4451;DHT22;2238;50.180;9.230;2023-02-28T20:38:23;0.00;99.90
4451;DHT22;2238;50.180;9.230;2023-02-28T20:41:24;0.00;99.90
4451;DHT22;2238;50.180;9.230;2023-02-28T20:44:24;0.20;99.90
4451;DHT22;2238;50.180;9.230;2023-02-28T20:47:25;0.20;99.90
4451;DHT22;2238;50.180;9.230;2023-02-28T20:50:26;0.20;99.90
4451;DHT22;2238;50.180;9.230;2023-02-28T20:53:27;0.10;99.90
4451;DHT22;2238;50.180;9.230;2023-02-28T20:56:28;-0.30;99.90
4451;DHT22;2238;50.180;9.230;2023-02-28T20:59:28;-0.60;99.90
4451;DHT22;2238;50.180;9.230;2023-02-28T21:02:29;-0.80;99.90
4451;DHT22;2238;50.180;9.230;2023-02-28T21:05:30;-0.80;99.90
4451;DHT22;2238;50.180;9.230;2023-02-28T21:08:33;-0.70;99.90
4451;DHT22;2238;50.180;9.230;2023-02-28T21:11:35;-0.50;99.90
4451;DHT22;2238;50.180;9.230;2023-02-28T21:14:36;-0.60;99.90
4451;DHT22;2238;50.180;9.230;2023-02-28T21:17:37;-1.00;99.90
4451;DHT22;2238;50.180;9.230;2023-02-28T21:20:37;-0.80;99.90
4451;DHT22;2238;50.180;9.230;2023-02-28T21:23:38;-1.00;99.90
4451;DHT22;2238;50.180;9.230;2023-02-28T21:26:40;-1.00;99.90
4451;DHT22;2238;50.180;9.230;2023-02-28T21:29:41;-0.90;99.90
4451;DHT22;2238;50.180;9.230;2023-02-28T21:32:41;-0.80;99.90
4451;DHT22;2238;50.180;9.230;2023-02-28T21:35:42;-0.80;99.90
4451;DHT22;2238;50.180;9.230;2023-02-28T21:38:45;-0.70;99.90
4451;DHT22;2238;50.180;9.230;2023-02-28T21:41:46;-0.70;99.90
4451;DHT22;2238;50.180;9.230;2023-02-28T21:44:47;-0.70;99.90
4451;DHT22;2238;50.180;9.230;2023-02-28T21:47:47;-0.60;99.90
4451;DHT22;2238;50.180;9.230;2023-02-28T21:50:58;-0.30;99.90
4451;DHT22;2238;50.180;9.230;2023-02-28T21:54:01;-0.20;99.90
4451;DHT22;2238;50.180;9.230;2023-02-28T21:57:02;0.00;99.90
4451;DHT22;2238;50.180;9.230;2023-02-28T22:00:03;-0.50;99.90
4451;DHT22;2238;50.180;9.230;2023-02-28T22:03:04;-0.60;99.90